ORD weather

Public forecast

Using degrees Fahrenheit for public forecast. Weather courtesy of forecast.io.

Current aviation weather report (METAR) for Chicago O'Hare International Airport

Retrieved 2020/08/13 01:51 UTC (45 minutes ago):

KORD 130151Z 08006KT 10SM SCT250 25/17 A3007 RMK AO2 SLP178 T02500172

Aviation forecast (TAF) for Chicago O'Hare International Airport

Retrieved 2020-08-13 00:30 UTC (2 hours ago):

TAF KORD 122328Z 1300/1406 08008KT P6SM FEW300